sensor_id;sensor_type;location;lat;lon;timestamp;pressure;altitude;pressure_sealevel;temperature;humidity
57801;BME280;43627;42.728;23.256;2023-03-25T00:00:12;94739.78;;;8.14;100.00
57801;BME280;43627;42.728;23.256;2023-03-25T00:02:47;94701.31;;;7.97;100.00
57801;BME280;43627;42.728;23.256;2023-03-25T00:05:17;94723.19;;;8.12;100.00
57801;BME280;43627;42.728;23.256;2023-03-25T00:07:46;94716.09;;;8.15;100.00
57801;BME280;43627;42.728;23.256;2023-03-25T00:10:14;94649.97;;;7.54;100.00
57801;BME280;43627;42.728;23.256;2023-03-25T00:12:41;94709.59;;;7.94;100.00
57801;BME280;43627;42.728;23.256;2023-03-25T00:15:12;94606.78;;;7.19;100.00
57801;BME280;43627;42.728;23.256;2023-03-25T00:17:39;94704.16;;;7.85;100.00
57801;BME280;43627;42.728;23.256;2023-03-25T00:20:07;94658.16;;;7.72;100.00
57801;BME280;43627;42.728;23.256;2023-03-25T00:22:36;94694.22;;;8.00;100.00
57801;BME280;43627;42.728;23.256;2023-03-25T00:25:12;94698.00;;;8.12;100.00
57801;BME280;43627;42.728;23.256;2023-03-25T00:27:45;94651.22;;;7.71;100.00
57801;BME280;43627;42.728;23.256;2023-03-25T00:30:14;94717.63;;;8.16;100.00
57801;BME280;43627;42.728;23.256;2023-03-25T00:32:41;94691.81;;;8.11;100.00
57801;BME280;43627;42.728;23.256;2023-03-25T00:35:11;94592.22;;;7.35;100.00
57801;BME280;43627;42.728;23.256;2023-03-25T00:37:39;94695.16;;;8.15;100.00
57801;BME280;43627;42.728;23.256;2023-03-25T00:40:07;94676.44;;;7.99;100.00
57801;BME280;43627;42.728;23.256;2023-03-25T00:42:34;94713.69;;;8.17;100.00
57801;BME280;43627;42.728;23.256;2023-03-25T00:45:01;94703.13;;;8.19;100.00
57801;BME280;43627;42.728;23.256;2023-03-25T00:47:29;94673.09;;;7.95;100.00
57801;BME280;43627;42.728;23.256;2023-03-25T00:49:56;94688.19;;;8.14;100.00
57801;BME280;43627;42.728;23.256;2023-03-25T00:52:23;94693.47;;;7.99;100.00
57801;BME280;43627;42.728;23.256;2023-03-25T00:54:50;94685.34;;;8.09;100.00
57801;BME280;43627;42.728;23.256;2023-03-25T00:57:18;94671.00;;;7.99;100.00
57801;BME280;43627;42.728;23.256;2023-03-25T00:59:44;94664.34;;;7.91;100.00
57801;BME280;43627;42.728;23.256;2023-03-25T01:02:11;94645.03;;;7.70;100.00
57801;BME280;43627;42.728;23.256;2023-03-25T01:04:38;94667.81;;;7.82;100.00
57801;BME280;43627;42.728;23.256;2023-03-25T01:07:10;94648.97;;;7.79;100.00
57801;BME280;43627;42.728;23.256;2023-03-25T01:09:38;94610.78;;;7.45;100.00
57801;BME280;43627;42.728;23.256;2023-03-25T01:12:05;94600.38;;;7.44;100.00
57801;BME280;43627;42.728;23.256;2023-03-25T01:14:31;94643.53;;;7.69;100.00
57801;BME280;43627;42.728;23.256;2023-03-25T01:16:58;94653.94;;;7.71;100.00
57801;BME280;43627;42.728;23.256;2023-03-25T01:19:25;94658.59;;;7.61;100.00
57801;BME280;43627;42.728;23.256;2023-03-25T01:21:52;94651.19;;;7.62;100.00
57801;BME280;43627;42.728;23.256;2023-03-25T01:24:19;94651.50;;;7.73;100.00
57801;BME280;43627;42.728;23.256;2023-03-25T01:26:46;94630.53;;;7.64;100.00
57801;BME280;43627;42.728;23.256;2023-03-25T01:29:15;94632.22;;;7.62;100.00
57801;BME280;43627;42.728;23.256;2023-03-25T01:31:43;94647.91;;;7.85;100.00
57801;BME280;43627;42.728;23.256;2023-03-25T01:34:11;94548.66;;;7.20;100.00
57801;BME280;43627;42.728;23.256;2023-03-25T01:36:37;94636.59;;;7.78;100.00
57801;BME280;43627;42.728;23.256;2023-03-25T01:39:13;94588.78;;;7.62;100.00
57801;BME280;43627;42.728;23.256;2023-03-25T01:41:46;94569.19;;;7.49;100.00
57801;BME280;43627;42.728;23.256;2023-03-25T01:46:48;94594.50;;;7.55;100.00
57801;BME280;43627;42.728;23.256;2023-03-25T01:49:23;94628.88;;;7.76;100.00
57801;BME280;43627;42.728;23.256;2023-03-25T01:51:54;94634.19;;;7.89;100.00
57801;BME280;43627;42.728;23.256;2023-03-25T01:54:22;94620.44;;;7.74;100.00
57801;BME280;43627;42.728;23.256;2023-03-25T01:56:49;94636.28;;;7.76;100.00
57801;BME280;43627;42.728;23.256;2023-03-25T01:59:19;94629.78;;;7.64;100.00
57801;BME280;43627;42.728;23.256;2023-03-25T02:01:50;94610.34;;;7.65;100.00
57801;BME280;43627;42.728;23.256;2023-03-25T02:04:26;94578.50;;;7.29;100.00
57801;BME280;43627;42.728;23.256;2023-03-25T02:07:00;94624.50;;;7.51;100.00
57801;BME280;43627;42.728;23.256;2023-03-25T02:09:27;94571.53;;;7.10;100.00
57801;BME280;43627;42.728;23.256;2023-03-25T02:11:54;94579.22;;;7.11;100.00
57801;BME280;43627;42.728;23.256;2023-03-25T02:14:27;94615.91;;;7.43;100.00
57801;BME280;43627;42.728;23.256;2023-03-25T02:42:24;94611.38;;;7.31;100.00
57801;BME280;43627;42.728;23.256;2023-03-25T02:44:55;94615.56;;;7.23;100.00
57801;BME280;43627;42.728;23.256;2023-03-25T02:47:28;94592.28;;;6.95;100.00
57801;BME280;43627;42.728;23.256;2023-03-25T02:50:00;94590.00;;;6.84;100.00
57801;BME280;43627;42.728;23.256;2023-03-25T02:52:43;94594.66;;;6.83;100.00
57801;BME280;43627;42.728;23.256;2023-03-25T02:55:14;94612.38;;;6.75;100.00
57801;BME280;43627;42.728;23.256;2023-03-25T02:57:45;94580.94;;;6.47;100.00
57801;BME280;43627;42.728;23.256;2023-03-25T03:00:17;94564.34;;;6.36;100.00
57801;BME280;43627;42.728;23.256;2023-03-25T03:02:57;94576.69;;;6.37;100.00
57801;BME280;43627;42.728;23.256;2023-03-25T03:05:32;94587.06;;;6.38;100.00
57801;BME280;43627;42.728;23.256;2023-03-25T03:10:31;94598.91;;;6.32;100.00
57801;BME280;43627;42.728;23.256;2023-03-25T03:13:28;94591.44;;;6.36;100.00
57801;BME280;43627;42.728;23.256;2023-03-25T03:16:33;94593.44;;;6.22;100.00
57801;BME280;43627;42.728;23.256;2023-03-25T03:21:55;94612.38;;;5.79;100.00
57801;BME280;43627;42.728;23.256;2023-03-25T03:24:37;94582.13;;;5.58;100.00
57801;BME280;43627;42.728;23.256;2023-03-25T03:29:45;94530.03;;;5.23;100.00
57801;BME280;43627;42.728;23.256;2023-03-25T03:32:27;94603.09;;;5.67;100.00
57801;BME280;43627;42.728;23.256;2023-03-25T03:35:01;94595.34;;;5.56;100.00
57801;BME280;43627;42.728;23.256;2023-03-25T03:37:35;94615.66;;;5.61;100.00
57801;BME280;43627;42.728;23.256;2023-03-25T03:40:06;94590.81;;;5.53;100.00
57801;BME280;43627;42.728;23.256;2023-03-25T03:42:46;94552.84;;;5.22;100.00
57801;BME280;43627;42.728;23.256;2023-03-25T03:45:29;94603.75;;;5.58;100.00
57801;BME280;43627;42.728;23.256;2023-03-25T03:48:01;94536.84;;;5.15;100.00
57801;BME280;43627;42.728;23.256;2023-03-25T03:50:32;94589.16;;;5.56;100.00
57801;BME280;43627;42.728;23.256;2023-03-25T03:53:21;94502.41;;;5.06;100.00
57801;BME280;43627;42.728;23.256;2023-03-25T03:55:51;94609.00;;;5.74;100.00
57801;BME280;43627;42.728;23.256;2023-03-25T03:58:24;94603.97;;;5.64;100.00
57801;BME280;43627;42.728;23.256;2023-03-25T04:01:20;94611.41;;;5.72;100.00
57801;BME280;43627;42.728;23.256;2023-03-25T04:04:20;94607.75;;;5.66;100.00
57801;BME280;43627;42.728;23.256;2023-03-25T04:07:02;94603.25;;;5.51;100.00
57801;BME280;43627;42.728;23.256;2023-03-25T04:12:07;94591.72;;;5.37;100.00
57801;BME280;43627;42.728;23.256;2023-03-25T04:14:37;94594.50;;;5.47;100.00
57801;BME280;43627;42.728;23.256;2023-03-25T04:17:05;94553.69;;;5.32;100.00
57801;BME280;43627;42.728;23.256;2023-03-25T04:19:32;94607.97;;;5.94;100.00
57801;BME280;43627;42.728;23.256;2023-03-25T04:22:03;94595.22;;;5.94;100.00
57801;BME280;43627;42.728;23.256;2023-03-25T04:24:30;94579.69;;;6.08;100.00
57801;BME280;43627;42.728;23.256;2023-03-25T04:26:58;94581.63;;;6.07;100.00
57801;BME280;43627;42.728;23.256;2023-03-25T04:29:30;94566.69;;;5.81;100.00
57801;BME280;43627;42.728;23.256;2023-03-25T04:31:58;94610.56;;;6.19;100.00
57801;BME280;43627;42.728;23.256;2023-03-25T04:34:26;94606.88;;;6.26;100.00
57801;BME280;43627;42.728;23.256;2023-03-25T04:36:53;94580.50;;;6.17;100.00
57801;BME280;43627;42.728;23.256;2023-03-25T04:39:23;94583.09;;;6.30;100.00
57801;BME280;43627;42.728;23.256;2023-03-25T04:41:51;94614.06;;;6.51;100.00
57801;BME280;43627;42.728;23.256;2023-03-25T04:44:29;94597.00;;;6.41;100.00
57801;BME280;43627;42.728;23.256;2023-03-25T04:47:00;94614.91;;;6.70;100.00
57801;BME280;43627;42.728;23.256;2023-03-25T04:49:28;94616.91;;;6.78;100.00
57801;BME280;43627;42.728;23.256;2023-03-25T04:51:54;94615.16;;;6.94;100.00
57801;BME280;43627;42.728;23.256;2023-03-25T04:54:22;94597.53;;;6.89;100.00
57801;BME280;43627;42.728;23.256;2023-03-25T04:56:50;94569.16;;;6.72;100.00
57801;BME280;43627;42.728;23.256;2023-03-25T04:59:18;94607.75;;;7.34;100.00
57801;BME280;43627;42.728;23.256;2023-03-25T05:01:46;94605.97;;;7.40;100.00
57801;BME280;43627;42.728;23.256;2023-03-25T05:04:14;94572.94;;;7.24;100.00
57801;BME280;43627;42.728;23.256;2023-03-25T05:06:45;94602.19;;;7.56;100.00
57801;BME280;43627;42.728;23.256;2023-03-25T05:09:16;94620.31;;;7.68;100.00
57801;BME280;43627;42.728;23.256;2023-03-25T05:11:45;94618.66;;;7.71;100.00
57801;BME280;43627;42.728;23.256;2023-03-25T05:14:13;94625.59;;;7.90;100.00
57801;BME280;43627;42.728;23.256;2023-03-25T05:16:41;94606.59;;;7.90;100.00
57801;BME280;43627;42.728;23.256;2023-03-25T05:19:08;94615.63;;;8.15;100.00
57801;BME280;43627;42.728;23.256;2023-03-25T05:21:36;94612.44;;;8.95;100.00
57801;BME280;43627;42.728;23.256;2023-03-25T05:24:05;94592.13;;;9.86;100.00
57801;BME280;43627;42.728;23.256;2023-03-25T05:26:37;94602.97;;;11.13;99.03
57801;BME280;43627;42.728;23.256;2023-03-25T05:29:09;94599.13;;;12.22;90.22
57801;BME280;43627;42.728;23.256;2023-03-25T05:31:40;94543.50;;;12.88;70.07
57801;BME280;43627;42.728;23.256;2023-03-25T05:34:06;94584.72;;;13.96;69.01
57801;BME280;43627;42.728;23.256;2023-03-25T05:36:34;94619.09;;;14.96;60.47
57801;BME280;43627;42.728;23.256;2023-03-25T05:39:02;94630.78;;;15.58;55.07
57801;BME280;43627;42.728;23.256;2023-03-25T05:41:31;94613.06;;;15.48;53.62
57801;BME280;43627;42.728;23.256;2023-03-25T05:44:01;94627.06;;;14.60;53.91
57801;BME280;43627;42.728;23.256;2023-03-25T05:46:28;94637.53;;;13.96;56.88
57801;BME280;43627;42.728;23.256;2023-03-25T05:48:55;94613.84;;;13.45;61.79
57801;BME280;43627;42.728;23.256;2023-03-25T05:51:25;94604.53;;;13.68;58.66
57801;BME280;43627;42.728;23.256;2023-03-25T05:53:52;94618.13;;;13.52;60.29
57801;BME280;43627;42.728;23.256;2023-03-25T05:56:21;94638.09;;;13.63;61.08
57801;BME280;43627;42.728;23.256;2023-03-25T05:58:50;94637.34;;;13.57;60.32
57801;BME280;43627;42.728;23.256;2023-03-25T06:01:19;94627.81;;;13.15;62.85
57801;BME280;43627;42.728;23.256;2023-03-25T06:04:00;94578.75;;;12.49;61.95
57801;BME280;43627;42.728;23.256;2023-03-25T06:06:28;94613.66;;;12.59;63.08
57801;BME280;43627;42.728;23.256;2023-03-25T06:08:56;94561.50;;;12.37;66.50
57801;BME280;43627;42.728;23.256;2023-03-25T06:11:23;94566.16;;;12.05;68.27
57801;BME280;43627;42.728;23.256;2023-03-25T06:13:51;94597.06;;;12.37;68.39
57801;BME280;43627;42.728;23.256;2023-03-25T06:16:23;94601.59;;;12.20;66.55
57801;BME280;43627;42.728;23.256;2023-03-25T06:18:56;94610.03;;;12.42;69.58
57801;BME280;43627;42.728;23.256;2023-03-25T06:21:30;94522.59;;;11.96;66.65
57801;BME280;43627;42.728;23.256;2023-03-25T06:23:59;94632.84;;;12.91;64.26
57801;BME280;43627;42.728;23.256;2023-03-25T06:26:28;94594.50;;;12.59;63.35
57801;BME280;43627;42.728;23.256;2023-03-25T06:28:55;94604.66;;;12.27;65.51
57801;BME280;43627;42.728;23.256;2023-03-25T06:31:24;94556.34;;;11.93;68.19
57801;BME280;43627;42.728;23.256;2023-03-25T06:33:53;94633.00;;;12.30;74.66
57801;BME280;43627;42.728;23.256;2023-03-25T06:36:20;94625.78;;;12.27;68.62
57801;BME280;43627;42.728;23.256;2023-03-25T06:38:48;94617.28;;;12.45;69.42
57801;BME280;43627;42.728;23.256;2023-03-25T06:41:17;94634.44;;;12.46;67.10
57801;BME280;43627;42.728;23.256;2023-03-25T06:43:47;94614.75;;;12.42;66.99
57801;BME280;43627;42.728;23.256;2023-03-25T06:46:15;94616.28;;;12.22;68.29
57801;BME280;43627;42.728;23.256;2023-03-25T06:48:42;94619.19;;;12.39;69.43
57801;BME280;43627;42.728;23.256;2023-03-25T06:51:10;94594.41;;;12.48;67.49
57801;BME280;43627;42.728;23.256;2023-03-25T06:53:37;94621.69;;;12.69;66.53
57801;BME280;43627;42.728;23.256;2023-03-25T06:56:04;94613.06;;;12.76;66.01
57801;BME280;43627;42.728;23.256;2023-03-25T06:58:31;94651.34;;;13.02;64.03
57801;BME280;43627;42.728;23.256;2023-03-25T07:01:01;94621.91;;;12.91;64.74
57801;BME280;43627;42.728;23.256;2023-03-25T07:03:33;94640.16;;;13.00;66.73
57801;BME280;43627;42.728;23.256;2023-03-25T07:06:00;94611.41;;;12.84;66.64
57801;BME280;43627;42.728;23.256;2023-03-25T07:08:27;94629.09;;;12.88;68.45
57801;BME280;43627;42.728;23.256;2023-03-25T07:11:00;94574.28;;;12.77;67.14
57801;BME280;43627;42.728;23.256;2023-03-25T07:13:27;94618.94;;;13.26;65.90
57801;BME280;43627;42.728;23.256;2023-03-25T07:15:57;94559.09;;;12.76;67.83
57801;BME280;43627;42.728;23.256;2023-03-25T07:18:25;94538.03;;;12.88;64.56
57801;BME280;43627;42.728;23.256;2023-03-25T07:20:52;94577.28;;;13.11;64.11
57801;BME280;43627;42.728;23.256;2023-03-25T07:23:19;94564.69;;;13.25;62.78
57801;BME280;43627;42.728;23.256;2023-03-25T07:25:46;94605.69;;;14.05;60.53
57801;BME280;43627;42.728;23.256;2023-03-25T07:28:13;94624.72;;;14.36;58.68
57801;BME280;43627;42.728;23.256;2023-03-25T07:30:40;94517.53;;;13.52;61.33
57801;BME280;43627;42.728;23.256;2023-03-25T07:33:07;94604.53;;;14.39;59.55
57801;BME280;43627;42.728;23.256;2023-03-25T07:35:34;94628.09;;;14.79;57.69
57801;BME280;43627;42.728;23.256;2023-03-25T07:38:00;94604.84;;;14.64;56.83
57801;BME280;43627;42.728;23.256;2023-03-25T07:40:28;94624.84;;;14.81;57.43
57801;BME280;43627;42.728;23.256;2023-03-25T07:42:55;94553.72;;;14.77;55.71
57801;BME280;43627;42.728;23.256;2023-03-25T07:45:21;94617.06;;;15.69;54.75
57801;BME280;43627;42.728;23.256;2023-03-25T07:47:48;94597.38;;;15.37;55.83
57801;BME280;43627;42.728;23.256;2023-03-25T07:50:18;94609.00;;;15.93;54.08
57801;BME280;43627;42.728;23.256;2023-03-25T07:52:45;94532.63;;;15.64;52.72
57801;BME280;43627;42.728;23.256;2023-03-25T07:55:12;94580.38;;;16.19;52.18
57801;BME280;43627;42.728;23.256;2023-03-25T07:57:40;94586.97;;;16.46;51.34
57801;BME280;43627;42.728;23.256;2023-03-25T08:00:10;94605.63;;;16.70;51.08
57801;BME280;43627;42.728;23.256;2023-03-25T08:02:37;94539.44;;;16.04;52.20
57801;BME280;43627;42.728;23.256;2023-03-25T08:05:08;94589.94;;;16.07;52.45
57801;BME280;43627;42.728;23.256;2023-03-25T08:07:35;94587.50;;;15.86;52.88
57801;BME280;43627;42.728;23.256;2023-03-25T08:10:02;94582.69;;;16.04;53.17
57801;BME280;43627;42.728;23.256;2023-03-25T08:12:29;94550.66;;;16.12;52.46
57801;BME280;43627;42.728;23.256;2023-03-25T08:14:56;94540.34;;;15.71;53.13
57801;BME280;43627;42.728;23.256;2023-03-25T08:17:23;94574.56;;;15.70;54.23
57801;BME280;43627;42.728;23.256;2023-03-25T08:19:50;94542.91;;;15.47;55.59
57801;BME280;43627;42.728;23.256;2023-03-25T08:22:16;94578.56;;;15.69;54.80
57801;BME280;43627;42.728;23.256;2023-03-25T08:24:43;94574.28;;;15.85;54.28
57801;BME280;43627;42.728;23.256;2023-03-25T08:27:10;94563.91;;;16.08;53.52
57801;BME280;43627;42.728;23.256;2023-03-25T08:29:43;94572.31;;;16.26;52.83
57801;BME280;43627;42.728;23.256;2023-03-25T08:32:09;94579.59;;;16.24;52.67
57801;BME280;43627;42.728;23.256;2023-03-25T08:34:36;94577.16;;;16.09;53.34
57801;BME280;43627;42.728;23.256;2023-03-25T08:37:06;94568.16;;;16.09;52.88
57801;BME280;43627;42.728;23.256;2023-03-25T08:39:33;94558.91;;;16.12;53.08
57801;BME280;43627;42.728;23.256;2023-03-25T08:42:06;94573.44;;;16.01;53.55
57801;BME280;43627;42.728;23.256;2023-03-25T08:44:33;94546.72;;;15.96;52.98
57801;BME280;43627;42.728;23.256;2023-03-25T08:47:00;94565.44;;;16.50;51.78
57801;BME280;43627;42.728;23.256;2023-03-25T08:49:27;94538.63;;;16.56;51.68
57801;BME280;43627;42.728;23.256;2023-03-25T08:51:53;94563.72;;;16.82;51.24
57801;BME280;43627;42.728;23.256;2023-03-25T08:54:23;94531.59;;;16.19;52.00
57801;BME280;43627;42.728;23.256;2023-03-25T08:56:51;94553.06;;;16.68;51.18
57801;BME280;43627;42.728;23.256;2023-03-25T08:59:18;94513.53;;;16.71;50.70
57801;BME280;43627;42.728;23.256;2023-03-25T09:01:46;94565.16;;;17.25;50.23
57801;BME280;43627;42.728;23.256;2023-03-25T09:04:13;94555.50;;;17.37;49.33
57801;BME280;43627;42.728;23.256;2023-03-25T09:06:39;94524.59;;;17.68;48.47
57801;BME280;43627;42.728;23.256;2023-03-25T09:09:15;94539.84;;;17.94;48.12
57801;BME280;43627;42.728;23.256;2023-03-25T09:11:41;94527.09;;;18.28;47.09
57801;BME280;43627;42.728;23.256;2023-03-25T09:14:08;94517.69;;;18.18;46.36
57801;BME280;43627;42.728;23.256;2023-03-25T09:16:35;94537.53;;;18.17;46.93
57801;BME280;43627;42.728;23.256;2023-03-25T09:19:02;94532.69;;;18.04;47.26
57801;BME280;43627;42.728;23.256;2023-03-25T09:21:29;94528.25;;;18.20;46.74
57801;BME280;43627;42.728;23.256;2023-03-25T09:23:56;94519.50;;;18.35;46.53
57801;BME280;43627;42.728;23.256;2023-03-25T09:26:23;94521.13;;;18.24;46.56
57801;BME280;43627;42.728;23.256;2023-03-25T09:28:51;94518.91;;;18.23;47.06
57801;BME280;43627;42.728;23.256;2023-03-25T09:31:22;94515.97;;;18.34;46.55
57801;BME280;43627;42.728;23.256;2023-03-25T09:33:49;94522.69;;;18.58;46.78
57801;BME280;43627;42.728;23.256;2023-03-25T09:36:16;94504.50;;;18.81;46.42
57801;BME280;43627;42.728;23.256;2023-03-25T09:38:42;94503.03;;;18.80;45.46
57801;BME280;43627;42.728;23.256;2023-03-25T09:41:29;94510.22;;;19.15;45.41
57801;BME280;43627;42.728;23.256;2023-03-25T09:46:40;94503.53;;;19.37;43.38
57801;BME280;43627;42.728;23.256;2023-03-25T09:49:15;94505.88;;;19.46;42.17
57801;BME280;43627;42.728;23.256;2023-03-25T09:51:45;94501.09;;;19.47;41.27
57801;BME280;43627;42.728;23.256;2023-03-25T09:54:30;94492.69;;;19.52;40.55
57801;BME280;43627;42.728;23.256;2023-03-25T09:57:03;94453.56;;;19.35;39.08
57801;BME280;43627;42.728;23.256;2023-03-25T09:59:41;94470.47;;;19.58;38.15
57801;BME280;43627;42.728;23.256;2023-03-25T10:02:35;94487.91;;;19.92;38.56
57801;BME280;43627;42.728;23.256;2023-03-25T10:07:57;94470.22;;;20.30;37.27
57801;BME280;43627;42.728;23.256;2023-03-25T10:13:15;94470.63;;;20.68;38.71
57801;BME280;43627;42.728;23.256;2023-03-25T10:15:57;94460.56;;;20.23;38.50
57801;BME280;43627;42.728;23.256;2023-03-25T10:21:18;94450.22;;;20.23;37.67
57801;BME280;43627;42.728;23.256;2023-03-25T10:26:47;94448.81;;;19.96;37.59
57801;BME280;43627;42.728;23.256;2023-03-25T10:29:25;94424.81;;;19.91;37.57
57801;BME280;43627;42.728;23.256;2023-03-25T10:31:56;94428.59;;;20.01;37.71
57801;BME280;43627;42.728;23.256;2023-03-25T10:34:36;94415.59;;;20.30;36.91
57801;BME280;43627;42.728;23.256;2023-03-25T10:37:09;94429.59;;;20.87;35.71
57801;BME280;43627;42.728;23.256;2023-03-25T10:39:40;94424.19;;;20.81;37.60
57801;BME280;43627;42.728;23.256;2023-03-25T10:42:26;94429.41;;;20.85;36.72
57801;BME280;43627;42.728;23.256;2023-03-25T10:44:56;94405.88;;;21.28;36.05
57801;BME280;43627;42.728;23.256;2023-03-25T10:47:26;94382.44;;;21.36;35.94
57801;BME280;43627;42.728;23.256;2023-03-25T10:49:55;94415.44;;;21.99;36.21
57801;BME280;43627;42.728;23.256;2023-03-25T10:52:22;94420.22;;;21.91;34.96
57801;BME280;43627;42.728;23.256;2023-03-25T10:54:53;94410.97;;;21.96;35.58
57801;BME280;43627;42.728;23.256;2023-03-25T10:57:25;94408.19;;;21.96;34.24
57801;BME280;43627;42.728;23.256;2023-03-25T11:00:05;94399.28;;;21.98;33.95
57801;BME280;43627;42.728;23.256;2023-03-25T11:02:38;94396.53;;;21.98;34.59
57801;BME280;43627;42.728;23.256;2023-03-25T11:05:06;94402.00;;;22.18;33.86
57801;BME280;43627;42.728;23.256;2023-03-25T11:07:57;94392.75;;;22.54;33.41
57801;BME280;43627;42.728;23.256;2023-03-25T11:10:40;94387.91;;;22.16;33.26
57801;BME280;43627;42.728;23.256;2023-03-25T11:13:13;94381.06;;;21.66;32.95
57801;BME280;43627;42.728;23.256;2023-03-25T11:15:42;94392.72;;;21.64;33.29
57801;BME280;43627;42.728;23.256;2023-03-25T11:21:13;94385.91;;;21.73;33.52
57801;BME280;43627;42.728;23.256;2023-03-25T11:23:43;94375.66;;;21.53;33.52
57801;BME280;43627;42.728;23.256;2023-03-25T11:26:23;94379.38;;;21.55;33.89
57801;BME280;43627;42.728;23.256;2023-03-25T11:28:54;94356.44;;;22.14;32.70
57801;BME280;43627;42.728;23.256;2023-03-25T11:31:26;94359.06;;;22.42;32.50
57801;BME280;43627;42.728;23.256;2023-03-25T11:36:38;94355.94;;;21.72;33.21
57801;BME280;43627;42.728;23.256;2023-03-25T11:41:56;94342.03;;;21.64;34.20
57801;BME280;43627;42.728;23.256;2023-03-25T11:44:30;94341.72;;;21.75;33.31
57801;BME280;43627;42.728;23.256;2023-03-25T11:47:04;94330.75;;;21.70;33.53
57801;BME280;43627;42.728;23.256;2023-03-25T11:49:34;94347.22;;;21.67;33.86
57801;BME280;43627;42.728;23.256;2023-03-25T11:52:07;94318.69;;;21.08;34.16
57801;BME280;43627;42.728;23.256;2023-03-25T11:54:35;94325.66;;;21.01;34.37
57801;BME280;43627;42.728;23.256;2023-03-25T11:57:05;94330.41;;;20.93;34.54
57801;BME280;43627;42.728;23.256;2023-03-25T11:59:44;94337.16;;;21.05;34.59
57801;BME280;43627;42.728;23.256;2023-03-25T12:02:30;94329.66;;;20.85;34.83
57801;BME280;43627;42.728;23.256;2023-03-25T12:05:14;94333.31;;;20.80;35.26
57801;BME280;43627;42.728;23.256;2023-03-25T12:07:50;94301.00;;;20.33;35.21
57801;BME280;43627;42.728;23.256;2023-03-25T12:21:46;94324.94;;;19.68;35.97
57801;BME280;43627;42.728;23.256;2023-03-25T12:27:24;94323.00;;;19.76;36.66
57801;BME280;43627;42.728;23.256;2023-03-25T12:35:54;94330.94;;;19.59;36.38
57801;BME280;43627;42.728;23.256;2023-03-25T12:52:28;94315.72;;;20.07;36.16
57801;BME280;43627;42.728;23.256;2023-03-25T13:04:00;94318.91;;;20.32;35.35
57801;BME280;43627;42.728;23.256;2023-03-25T13:11:55;94303.53;;;20.03;36.14
57801;BME280;43627;42.728;23.256;2023-03-25T13:14:29;94307.84;;;19.90;36.15
57801;BME280;43627;42.728;23.256;2023-03-25T13:17:00;94310.81;;;19.72;36.24
57801;BME280;43627;42.728;23.256;2023-03-25T13:19:30;94278.25;;;19.30;36.80
57801;BME280;43627;42.728;23.256;2023-03-25T13:22:03;94302.47;;;19.37;37.12
57801;BME280;43627;42.728;23.256;2023-03-25T13:24:47;94271.88;;;19.22;37.29
57801;BME280;43627;42.728;23.256;2023-03-25T13:27:17;94319.94;;;19.19;37.19
57801;BME280;43627;42.728;23.256;2023-03-25T13:29:56;94318.38;;;18.84;37.41
57801;BME280;43627;42.728;23.256;2023-03-25T13:32:33;94297.34;;;18.41;37.95
57801;BME280;43627;42.728;23.256;2023-03-25T13:35:06;94298.69;;;18.21;38.41
57801;BME280;43627;42.728;23.256;2023-03-25T13:37:39;94330.06;;;18.18;38.97
57801;BME280;43627;42.728;23.256;2023-03-25T13:45:31;94353.59;;;18.06;39.07
57801;BME280;43627;42.728;23.256;2023-03-25T13:48:14;94345.00;;;18.10;39.68
57801;BME280;43627;42.728;23.256;2023-03-25T13:50:43;94346.06;;;18.07;39.60
57801;BME280;43627;42.728;23.256;2023-03-25T13:54:06;94323.84;;;17.67;41.41
57801;BME280;43627;42.728;23.256;2023-03-25T14:04:40;94344.72;;;17.06;45.38
57801;BME280;43627;42.728;23.256;2023-03-25T14:13:39;94347.56;;;16.46;50.83
57801;BME280;43627;42.728;23.256;2023-03-25T14:16:13;94336.84;;;15.88;54.58
57801;BME280;43627;42.728;23.256;2023-03-25T14:18:47;94277.03;;;15.28;56.41
57801;BME280;43627;42.728;23.256;2023-03-25T14:24:05;94339.53;;;15.52;58.87
57801;BME280;43627;42.728;23.256;2023-03-25T14:26:41;94218.75;;;14.58;61.12
57801;BME280;43627;42.728;23.256;2023-03-25T14:29:38;94274.81;;;15.21;64.04
57801;BME280;43627;42.728;23.256;2023-03-25T14:34:48;94282.97;;;15.32;76.64
57801;BME280;43627;42.728;23.256;2023-03-25T14:37:25;94186.13;;;14.49;75.32
57801;BME280;43627;42.728;23.256;2023-03-25T14:39:59;94185.59;;;14.56;74.62
57801;BME280;43627;42.728;23.256;2023-03-25T14:42:57;94302.94;;;15.38;74.88
57801;BME280;43627;42.728;23.256;2023-03-25T14:47:58;94227.47;;;15.09;77.08
57801;BME280;43627;42.728;23.256;2023-03-25T14:53:02;94284.34;;;15.56;79.63
57801;BME280;43627;42.728;23.256;2023-03-25T14:55:32;94274.84;;;15.57;79.10
57801;BME280;43627;42.728;23.256;2023-03-25T14:58:06;94233.19;;;15.47;80.36
57801;BME280;43627;42.728;23.256;2023-03-25T15:00:50;94239.34;;;15.59;78.80
57801;BME280;43627;42.728;23.256;2023-03-25T15:03:19;94230.88;;;15.57;78.08
57801;BME280;43627;42.728;23.256;2023-03-25T15:05:57;94222.25;;;15.41;78.42
57801;BME280;43627;42.728;23.256;2023-03-25T15:08:40;94200.69;;;15.21;75.74
57801;BME280;43627;42.728;23.256;2023-03-25T15:11:13;94219.50;;;15.41;74.32
57801;BME280;43627;42.728;23.256;2023-03-25T15:13:47;94151.38;;;15.04;69.99
57801;BME280;43627;42.728;23.256;2023-03-25T15:16:35;94262.16;;;15.84;69.88
57801;BME280;43627;42.728;23.256;2023-03-25T15:19:10;94238.50;;;15.75;71.63
57801;BME280;43627;42.728;23.256;2023-03-25T15:24:34;94257.91;;;15.83;72.47
57801;BME280;43627;42.728;23.256;2023-03-25T15:41:09;94239.69;;;15.80;68.11
57801;BME280;43627;42.728;23.256;2023-03-25T15:56:01;94195.69;;;15.50;66.64
57801;BME280;43627;42.728;23.256;2023-03-25T16:01:27;94226.13;;;15.57;69.38
57801;BME280;43627;42.728;23.256;2023-03-25T16:04:03;94246.00;;;15.75;71.75